Slater, MO (65349)

5:20 AM CDT on August 02, 2015 (GMT -0500)
KMMO Radio, Marshall, Missouri | | Change Station
CLOSE
Current Station
Personal Weather Station
Location: Marshall, MO
Elevation: 791 ft
Nearby Weather Stations
Active Advisory: Flood Warning Active Notice: Local Storm Report

Elev 791 ft 39.13 °N, 93.22 °W | Updated 3 seconds ago

Clear
Clear
68.0 °F
Feels Like 68.0 °F
N
2.0
Wind Variable Wind from South
Gusts 7.0 mph

Today
High -- | Low -- °F
--% Chance of Precip.
Yesterday
High -- | Low -- °F
Precip. -- in
6:13 AM 8:23 PM
Waning Gibbous, 94% visible
Pressure 29.93 in
Visibility 10.0 miles
Clouds Clear
Dew Point 67 °F
Humidity 96%
Rainfall 0.00 in
Snow Depth Not available.
UV 0 out of 12
Pollen 6.70 out of 12
Air Quality Not available.
Flu Activity Not available.
METAR KVER 021015Z AUTO 15003KT 10SM CLR 19/19 A2993 RMK AO2 T01890189

More Conditions Fewer Conditions

Pressure 29.93 in
Visibility 10.0 miles
Clouds Clear
Dew Point 67 °F
Humidity 96%
Rainfall 0.00 in
Snow Depth Not available.
UV 0 out of 12
Pollen 6.70 out of 12
Air Quality Not available.
Flu Activity Not available.
METAR KVER 021015Z AUTO 15003KT 10SM CLR 19/19 A2993 RMK AO2 T01890189

More Conditions Fewer Conditions

10-Day Weather Forecast

×

Almanac

Astronomy

Aug. 02, 2015 Rise Set
Actual Time
Civil Twilight
Nautical Twilight
Astronomical Twilight
Moon
Length of Visible Light
Length of Day
Tomorrow will be .
, % of the Moon is Illuminated

Today's Extremes

State Highs State Lows

Community

WunderPhotos

Upload Photos

1,843,214 photos uploaded!

WunderBlogs® & News

Nearby

Air Quality

  Air Quality AQ Index Pollutant
Not available.

Snow Depth

Station Depth Elevation

Earthquake Activity

City Distance Mag. Time & Date
Minimum magnitude displayed is 2.5.

Coastal Water Temperatures

Place Temperature

Stations

Nearby Weather Stations

Station Location Temp. Windchill Dew Point Humidity Wind Precip. Elev Updated Type
                   
Flood Warning
Statement as of 10:55 AM CDT on August 01, 2015

The Flood Warning continues for
the Missouri River at Glasgow.
* Until Sunday evening.
* At 10:30 am Saturday the stage was 24.6 feet.
* Flood stage is 25.0 feet.
* Forecast... the river is expected to rise to near flood stage this
evening.
* At 25.0 feet... farmland along the river floods.

                       Latest
location fs stage day/time forecast

Missouri River
Glasgow 25 24.6 Sat 10 am 25.0 this evening


lat... Lon 3935 9314 3939 9305 3924 9279 3906 9287 3907 9296